地図

経路データ

SID SEASON NUMBER BASIN SUBBASIN NAME ISO_TIME NATURE LAT LON WMO_WIND WMO_PRES WMO_AGENCY TRACK_TYPE DIST2LAND LANDFALL IFLAG USA_AGENCY USA_ATCF_ID USA_LAT USA_LON USA_RECORD USA_STATUS USA_WIND USA_PRES USA_SSHS USA_R34_NE USA_R34_SE USA_R34_SW USA_R34_NW USA_R50_NE USA_R50_SE USA_R50_SW USA_R50_NW USA_R64_NE USA_R64_SE USA_R64_SW USA_R64_NW USA_POCI USA_ROCI USA_RMW USA_EYE TOKYO_LAT TOKYO_LON TOKYO_GRADE TOKYO_WIND TOKYO_PRES TOKYO_R50_DIR TOKYO_R50_LONG TOKYO_R50_SHORT TOKYO_R30_DIR TOKYO_R30_LONG TOKYO_R30_SHORT TOKYO_LAND CMA_LAT CMA_LON CMA_CAT CMA_WIND CMA_PRES HKO_LAT HKO_LON HKO_CAT HKO_WIND HKO_PRES NEWDELHI_LAT NEWDELHI_LON NEWDELHI_GRADE NEWDELHI_WIND NEWDELHI_PRES NEWDELHI_CI NEWDELHI_DP NEWDELHI_POCI REUNION_LAT REUNION_LON REUNION_TYPE REUNION_WIND REUNION_PRES REUNION_TNUM REUNION_CI REUNION_RMW REUNION_R34_NE REUNION_R34_SE REUNION_R34_SW REUNION_R34_NW REUNION_R50_NE REUNION_R50_SE REUNION_R50_SW REUNION_R50_NW REUNION_R64_NE REUNION_R64_SE REUNION_R64_SW REUNION_R64_NW BOM_LAT BOM_LON BOM_TYPE BOM_WIND BOM_PRES BOM_TNUM BOM_CI BOM_RMW BOM_R34_NE BOM_R34_SE BOM_R34_SW BOM_R34_NW BOM_R50_NE BOM_R50_SE BOM_R50_SW BOM_R50_NW BOM_R64_NE BOM_R64_SE BOM_R64_SW BOM_R64_NW BOM_ROCI BOM_POCI BOM_EYE BOM_POS_METHOD BOM_PRES_METHOD NADI_LAT NADI_LON NADI_CAT NADI_WIND NADI_PRES WELLINGTON_LAT WELLINGTON_LON WELLINGTON_WIND WELLINGTON_PRES DS824_LAT DS824_LON DS824_STAGE DS824_WIND DS824_PRES TD9636_LAT TD9636_LON TD9636_STAGE TD9636_WIND TD9636_PRES TD9635_LAT TD9635_LON TD9635_WIND TD9635_PRES TD9635_ROCI NEUMANN_LAT NEUMANN_LON NEUMANN_CLASS NEUMANN_WIND NEUMANN_PRES MLC_LAT MLC_LON MLC_CLASS MLC_WIND MLC_PRES USA_GUST BOM_GUST BOM_GUST_PER REUNION_GUST REUNION_GUST_PER USA_SEAHGT USA_SEARAD_NE USA_SEARAD_SE USA_SEARAD_SW USA_SEARAD_NW STORM_SPEED STORM_DIR
1976234N14312 1976 98 NA NA EMMY 1976-08-20 12:00:00 TS 14.0000 -48.0000 20 1012 hurdat_atl main 1107 1077 O_____________ hurdat_atl AL101976 14.0000 -48.0000 TD 20 1012 -1 13 270
1976234N14312 1976 98 NA NA EMMY 1976-08-20 15:00:00 TS 14.0028 -48.6475 main 1077 1047 P_____________ AL101976 14.0028 -48.6475 TD 20 -1 13 270
1976234N14312 1976 98 NA NA EMMY 1976-08-20 18:00:00 TS 14.0000 -49.3000 20 hurdat_atl main 1047 1022 O_____________ hurdat_atl AL101976 14.0000 -49.3000 TD 20 -1 13 270
1976234N14312 1976 98 NA NA EMMY 1976-08-20 21:00:00 TS 13.9924 -49.9576 main 1017 989 P_____________ AL101976 13.9924 -49.9576 TD 20 -1 13 270
1976234N14312 1976 98 NA NA EMMY 1976-08-21 00:00:00 TS 14.0000 -50.6000 20 hurdat_atl main 989 964 O_____________ hurdat_atl AL101976 14.0000 -50.6000 TD 20 -1 12 272
1976234N14312 1976 98 NA NA EMMY 1976-08-21 03:00:00 TS 14.0274 -51.2226 main 964 954 P_____________ AL101976 14.0274 -51.2226 TD 20 -1 12 275
1976234N14312 1976 98 NA NA EMMY 1976-08-21 06:00:00 TS 14.1000 -51.8000 20 hurdat_atl main 955 949 O_____________ hurdat_atl AL101976 14.1000 -51.8000 TD 20 -1 11 280
1976234N14312 1976 98 NA NA EMMY 1976-08-21 09:00:00 TS 14.2274 -52.3375 main 952 950 P_____________ AL101976 14.2274 -52.3375 TD 22 -1 10 287
1976234N14312 1976 98 NA NA EMMY 1976-08-21 12:00:00 TS 14.4000 -52.8000 25 1012 hurdat_atl main 964 952 O_____________ hurdat_atl AL101976 14.4000 -52.8000 TD 25 1012 -1 9 294
1976234N14312 1976 98 NA NA EMMY 1976-08-21 15:00:00 TS 14.5923 -53.1726 main 952 934 P_____________ AL101976 14.5923 -53.1726 TD 25 1011 -1 8 301
1976234N14312 1976 98 NA NA EMMY 1976-08-21 18:00:00 TS 14.8000 -53.5000 25 hurdat_atl main 934 911 I_____________ hurdat_atl AL101976 14.8000 -53.5000 TD 25 1011 -1 7 302
1976234N14312 1976 98 NA NA EMMY 1976-08-21 21:00:00 TS 14.9848 -53.8277 main 917 892 P_____________ AL101976 14.9848 -53.8277 TD 25 1010 -1 8 301
1976234N14312 1976 98 NA NA EMMY 1976-08-22 00:00:00 TS 15.2000 -54.2000 25 1010 hurdat_atl main 892 868 O_____________ hurdat_atl AL101976 15.2000 -54.2000 TD 25 1010 -1 10 302
1976234N14312 1976 98 NA NA EMMY 1976-08-22 03:00:00 TS 15.5001 -54.6923 main 868 848 P_____________ AL101976 15.5001 -54.6923 TD 27 1009 -1 11 302
1976234N14312 1976 98 NA NA EMMY 1976-08-22 06:00:00 TS 15.8000 -55.2000 30 1009 hurdat_atl main 848 832 O_____________ hurdat_atl AL101976 15.8000 -55.2000 TD 30 1009 -1 10 299
1976234N14312 1976 98 NA NA EMMY 1976-08-22 09:00:00 TS 15.9846 -55.5856 main 832 818 P_____________ AL101976 15.9846 -55.5856 TD 32 1007 -1 9 297
1976234N14312 1976 98 NA NA EMMY 1976-08-22 12:00:00 TS 16.2000 -56.0000 35 1006 hurdat_atl main 819 809 O_____________ hurdat_atl AL101976 16.2000 -56.0000 TS 35 1006 0 11 302
1976234N14312 1976 98 NA NA EMMY 1976-08-22 15:00:00 TS 16.5699 -56.5550 main 813 807 P_____________ AL101976 16.5699 -56.5550 TS 37 1005 0 14 305
1976234N14312 1976 98 NA NA EMMY 1976-08-22 18:00:00 TS 17.0000 -57.2000 40 1004 hurdat_atl main 815 810 O_____________ hurdat_atl AL101976 17.0000 -57.2000 TS 40 1004 0 15 303
1976234N14312 1976 98 NA NA EMMY 1976-08-22 21:00:00 TS 17.3999 -57.8852 main 820 741 P_____________ AL101976 17.3999 -57.8852 TS 42 1002 0 16 301
1976234N14312 1976 98 NA NA EMMY 1976-08-23 00:00:00 TS 17.8000 -58.6000 45 hurdat_atl main 741 665 I_____________ hurdat_atl AL101976 17.8000 -58.6000 TS 45 1000 0 16 300
1976234N14312 1976 98 NA NA EMMY 1976-08-23 03:00:00 TS 18.2000 -59.3301 main 665 590 P_____________ AL101976 18.2000 -59.3301 TS 47 998 0 16 301
1976234N14312 1976 98 NA NA EMMY 1976-08-23 06:00:00 TS 18.6000 -60.0000 50 997 hurdat_atl main 590 541 O_____________ hurdat_atl AL101976 18.6000 -60.0000 TS 50 997 0 14 305
1976234N14312 1976 98 NA NA EMMY 1976-08-23 09:00:00 TS 18.9996 -60.5304 main 541 496 P_____________ AL101976 18.9996 -60.5304 TS 52 996 0 12 310
1976234N14312 1976 98 NA NA EMMY 1976-08-23 12:00:00 TS 19.4000 -61.0000 55 hurdat_atl main 496 458 I_____________ hurdat_atl AL101976 19.4000 -61.0000 TS 55 996 0 12 311
1976234N14312 1976 98 NA NA EMMY 1976-08-23 15:00:00 TS 19.7772 -61.4856 main 458 428 P_____________ AL101976 19.7772 -61.4856 TS 55 996 0 12 310
1976234N14312 1976 98 NA NA EMMY 1976-08-23 18:00:00 TS 20.2000 -62.0000 55 996 hurdat_atl main 428 406 O_____________ hurdat_atl AL101976 20.2000 -62.0000 TS 55 996 0 14 311
1976234N14312 1976 98 NA NA EMMY 1976-08-23 21:00:00 TS 20.7052 -62.6149 main 406 397 P_____________ AL101976 20.7052 -62.6149 TS 55 997 0 16 314
1976234N14312 1976 98 NA NA EMMY 1976-08-24 00:00:00 TS 21.3000 -63.2000 55 998 hurdat_atl main 410 410 O_____________ hurdat_atl AL101976 21.3000 -63.2000 TS 55 998 0 16 323
1976234N14312 1976 98 NA NA EMMY 1976-08-24 03:00:00 TS 21.9998 -63.6526 main 448 448 P_____________ AL101976 21.9998 -63.6526 TS 55 998 0 16 332
1976234N14312 1976 98 NA NA EMMY 1976-08-24 06:00:00 TS 22.7000 -64.0000 55 999 hurdat_atl main 508 508 O_____________ hurdat_atl AL101976 22.7000 -64.0000 TS 55 999 0 14 336
1976234N14312 1976 98 NA NA EMMY 1976-08-24 09:00:00 TS 23.3024 -64.2878 main 564 564 P_____________ AL101976 23.3024 -64.2878 TS 55 999 0 12 337
1976234N14312 1976 98 NA NA EMMY 1976-08-24 12:00:00 TS 23.8000 -64.5000 55 999 hurdat_atl main 614 614 O_____________ hurdat_atl AL101976 23.8000 -64.5000 TS 55 999 0 10 335
1976234N14312 1976 98 NA NA EMMY 1976-08-24 15:00:00 TS 24.1724 -64.7323 main 655 653 P_____________ AL101976 24.1724 -64.7323 TS 57 997 0 8 339
1976234N14312 1976 98 NA NA EMMY 1976-08-24 18:00:00 TS 24.5000 -64.8000 60 995 hurdat_atl main 687 687 O_____________ hurdat_atl AL101976 24.5000 -64.8000 TS 60 995 0 7 11
1976234N14312 1976 98 NA NA EMMY 1976-08-24 21:00:00 TS 24.9000 -64.5829 main 734 734 P_____________ AL101976 24.9000 -64.5829 TS 60 994 0 10 34
1976234N14312 1976 98 NA NA EMMY 1976-08-25 00:00:00 TS 25.3000 -64.2000 60 hurdat_atl main 784 784 I_____________ hurdat_atl AL101976 25.3000 -64.2000 TS 60 993 0 10 41
1976234N14312 1976 98 NA NA EMMY 1976-08-25 03:00:00 TS 25.6721 -63.8522 main 834 834 P_____________ AL101976 25.6721 -63.8522 TS 60 992 0 10 46
1976234N14312 1976 98 NA NA EMMY 1976-08-25 06:00:00 TS 26.0000 -63.4000 60 991 hurdat_atl main 879 879 O_____________ hurdat_atl AL101976 26.0000 -63.4000 TS 60 991 0 11 56
1976234N14312 1976 98 NA NA EMMY 1976-08-25 09:00:00 TS 26.2947 -62.8177 main 928 928 P_____________ AL101976 26.2947 -62.8177 TS 62 990 0 13 67
1976234N14312 1976 98 NA NA EMMY 1976-08-25 12:00:00 TS 26.5000 -62.1000 65 990 hurdat_atl main 974 974 O_____________ hurdat_atl AL101976 26.5000 -62.1000 HU 65 990 1 14 79
1976234N14312 1976 98 NA NA EMMY 1976-08-25 15:00:00 TS 26.5729 -61.2568 main 1017 1017 P_____________ AL101976 26.5729 -61.2568 HU 65 990 1 15 86
1976234N14312 1976 98 NA NA EMMY 1976-08-25 18:00:00 TS 26.6000 -60.4000 65 991 hurdat_atl main 1060 1060 O_____________ hurdat_atl AL101976 26.6000 -60.4000 HU 65 991 1 14 85
1976234N14312 1976 98 NA NA EMMY 1976-08-25 21:00:00 TS 26.6920 -59.6625 main 1107 1107 P_____________ AL101976 26.6920 -59.6625 HU 67 989 1 13 81
1976234N14312 1976 98 NA NA EMMY 1976-08-26 00:00:00 TS 26.8000 -59.0000 70 988 hurdat_atl main 1157 1157 O_____________ hurdat_atl AL101976 26.8000 -59.0000 HU 70 988 1 11 79
1976234N14312 1976 98 NA NA EMMY 1976-08-26 03:00:00 TS 26.8991 -58.4148 main 1202 1202 P_____________ AL101976 26.8991 -58.4148 HU 72 986 1 11 79
1976234N14312 1976 98 NA NA EMMY 1976-08-26 06:00:00 TS 27.0000 -57.8000 75 984 hurdat_atl main 1249 1249 O_____________ hurdat_atl AL101976 27.0000 -57.8000 HU 75 984 1 13 82
1976234N14312 1976 98 NA NA EMMY 1976-08-26 09:00:00 TS 27.0778 -57.0145 main 1311 1311 P_____________ AL101976 27.0778 -57.0145 HU 77 982 1 14 82
1976234N14312 1976 98 NA NA EMMY 1976-08-26 12:00:00 TS 27.2000 -56.2000 80 980 hurdat_atl main 1375 1375 O_____________ hurdat_atl AL101976 27.2000 -56.2000 HU 80 980 1 14 78
1976234N14312 1976 98 NA NA EMMY 1976-08-26 15:00:00 TS 27.3746 -55.4692 main 1441 1441 P_____________ AL101976 27.3746 -55.4692 HU 82 978 1 13 68
1976234N14312 1976 98 NA NA EMMY 1976-08-26 18:00:00 TS 27.7000 -54.8000 85 976 hurdat_atl main 1515 1515 O_____________ hurdat_atl AL101976 27.7000 -54.8000 HU 85 976 2 15 53
1976234N14312 1976 98 NA NA EMMY 1976-08-26 21:00:00 TS 28.2702 -54.1115 main 1610 1610 P_____________ AL101976 28.2702 -54.1115 HU 85 2 16 41
1976234N14312 1976 98 NA NA EMMY 1976-08-27 00:00:00 TS 28.9000 -53.6000 85 hurdat_atl main 1691 1691 O_____________ hurdat_atl AL101976 28.9000 -53.6000 HU 85 2 13 30
1976234N14312 1976 98 NA NA EMMY 1976-08-27 03:00:00 TS 29.3570 -53.3867 main 1743 1743 P_____________ AL101976 29.3570 -53.3867 HU 85 2 9 11
1976234N14312 1976 98 NA NA EMMY 1976-08-27 06:00:00 TS 29.8000 -53.4000 85 hurdat_atl main 1773 1773 O_____________ hurdat_atl AL101976 29.8000 -53.4000 HU 85 2 10 354
1976234N14312 1976 98 NA NA EMMY 1976-08-27 09:00:00 TS 30.3500 -53.5120 main 1775 1716 P_____________ AL101976 30.3500 -53.5120 HU 85 2 11 347
1976234N14312 1976 98 NA NA EMMY 1976-08-27 12:00:00 TS 30.9000 -53.7000 85 975 hurdat_atl main 1716 1660 O_____________ hurdat_atl AL101976 30.9000 -53.7000 HU 85 975 2 11 347
1976234N14312 1976 98 NA NA EMMY 1976-08-27 15:00:00 TS 31.3795 -53.7835 main 1660 1612 P_____________ AL101976 31.3795 -53.7835 HU 85 2 9 344
1976234N14312 1976 98 NA NA EMMY 1976-08-27 18:00:00 TS 31.8000 -54.0000 85 hurdat_atl main 1612 1554 O_____________ hurdat_atl AL101976 31.8000 -54.0000 HU 85 2 10 320
1976234N14312 1976 98 NA NA EMMY 1976-08-27 21:00:00 TS 32.1808 -54.5617 main 1551 1501 P_____________ AL101976 32.1808 -54.5617 HU 85 2 12 305
1976234N14312 1976 98 NA NA EMMY 1976-08-28 00:00:00 TS 32.5000 -55.2000 85 hurdat_atl main 1501 1458 O_____________ hurdat_atl AL101976 32.5000 -55.2000 HU 85 2 11 303
1976234N14312 1976 98 NA NA EMMY 1976-08-28 03:00:00 TS 32.7647 -55.6456 main 1458 1420 P_____________ AL101976 32.7647 -55.6456 HU 85 2 8 307
1976234N14312 1976 98 NA NA EMMY 1976-08-28 06:00:00 TS 33.0000 -56.0000 85 hurdat_atl main 1420 1386 O_____________ hurdat_atl AL101976 33.0000 -56.0000 HU 85 2 7 311
1976234N14312 1976 98 NA NA EMMY 1976-08-28 09:00:00 TS 33.2498 -56.3153 main 1386 1343 P_____________ AL101976 33.2498 -56.3153 HU 85 2 7 315
1976234N14312 1976 98 NA NA EMMY 1976-08-28 12:00:00 TS 33.5000 -56.6000 85 975 hurdat_atl main 1343 1310 O_____________ hurdat_atl AL101976 33.5000 -56.6000 HU 85 975 2 7 315
1976234N14312 1976 98 NA NA EMMY 1976-08-28 15:00:00 TS 33.7576 -56.9299 main 1300 1267 P_____________ AL101976 33.7576 -56.9299 HU 85 2 7 315
1976234N14312 1976 98 NA NA EMMY 1976-08-28 18:00:00 TS 34.0000 -57.2000 85 hurdat_atl main 1267 1243 O_____________ hurdat_atl AL101976 34.0000 -57.2000 HU 85 2 6 323
1976234N14312 1976 98 NA NA EMMY 1976-08-28 21:00:00 TS 34.2074 -57.3452 main 1243 1219 P_____________ AL101976 34.2074 -57.3452 HU 85 2 4 338
1976234N14312 1976 98 NA NA EMMY 1976-08-29 00:00:00 TS 34.4000 -57.4000 85 hurdat_atl main 1219 1195 O_____________ hurdat_atl AL101976 34.4000 -57.4000 HU 85 2 4 347
1976234N14312 1976 98 NA NA EMMY 1976-08-29 03:00:00 TS 34.6149 -57.4599 main 1195 1181 P_____________ AL101976 34.6149 -57.4599 HU 85 2 4 0
1976234N14312 1976 98 NA NA EMMY 1976-08-29 06:00:00 TS 34.8000 -57.4000 85 hurdat_atl main 1181 1172 O_____________ hurdat_atl AL101976 34.8000 -57.4000 HU 85 2 4 34
1976234N14312 1976 98 NA NA EMMY 1976-08-29 09:00:00 TS 34.9296 -57.1977 main 1182 1178 P_____________ AL101976 34.9296 -57.1977 HU 87 2 5 68
1976234N14312 1976 98 NA NA EMMY 1976-08-29 12:00:00 TS 35.0000 -56.8000 90 974 hurdat_atl main 1191 1191 O_____________ hurdat_atl AL101976 35.0000 -56.8000 HU 90 974 2 8 84
1976234N14312 1976 98 NA NA EMMY 1976-08-29 15:00:00 TS 35.0157 -56.1798 main 1208 1208 P_____________ AL101976 35.0157 -56.1798 HU 90 2 11 90
1976234N14312 1976 98 NA NA EMMY 1976-08-29 18:00:00 TS 35.0000 -55.5000 90 hurdat_atl main 1229 1229 O_____________ hurdat_atl AL101976 35.0000 -55.5000 HU 90 2 10 91
1976234N14312 1976 98 NA NA EMMY 1976-08-29 21:00:00 TS 34.9993 -54.9925 main 1246 1246 P_____________ AL101976 34.9993 -54.9925 HU 90 2 8 90
1976234N14312 1976 98 NA NA EMMY 1976-08-30 00:00:00 TS 35.0000 -54.5000 90 hurdat_atl main 1264 1264 O_____________ hurdat_atl AL101976 35.0000 -54.5000 HU 90 2 9 89
1976234N14312 1976 98 NA NA EMMY 1976-08-30 03:00:00 TS 35.0073 -53.9227 main 1287 1287 P_____________ AL101976 35.0073 -53.9227 HU 90 2 10 90
1976234N14312 1976 98 NA NA EMMY 1976-08-30 06:00:00 TS 35.0000 -53.3000 90 hurdat_atl main 1290 1290 O_____________ hurdat_atl AL101976 35.0000 -53.3000 HU 90 2 10 93
1976234N14312 1976 98 NA NA EMMY 1976-08-30 09:00:00 TS 34.9495 -52.6722 main 1302 1302 P_____________ AL101976 34.9495 -52.6722 HU 90 2 11 95
1976234N14312 1976 98 NA NA EMMY 1976-08-30 12:00:00 TS 34.9000 -52.0000 90 975 hurdat_atl main 1305 1305 O_____________ hurdat_atl AL101976 34.9000 -52.0000 HU 90 975 2 11 93
1976234N14312 1976 98 NA NA EMMY 1976-08-30 15:00:00 TS 34.8919 -51.2877 main 1311 1311 P_____________ AL101976 34.8919 -51.2877 HU 90 2 12 90
1976234N14312 1976 98 NA NA EMMY 1976-08-30 18:00:00 TS 34.9000 -50.5000 90 hurdat_atl main 1321 1321 O_____________ hurdat_atl AL101976 34.9000 -50.5000 HU 90 2 14 90
1976234N14312 1976 98 NA NA EMMY 1976-08-30 21:00:00 TS 34.8996 -49.6300 main 1336 1336 P_____________ AL101976 34.8996 -49.6300 HU 90 2 15 90
1976234N14312 1976 98 NA NA EMMY 1976-08-31 00:00:00 TS 34.9000 -48.7000 90 hurdat_atl main 1354 1354 O_____________ hurdat_atl AL101976 34.9000 -48.7000 HU 90 2 15 91
1976234N14312 1976 98 NA NA EMMY 1976-08-31 03:00:00 TS 34.8844 -47.7570 main 1377 1377 P_____________ AL101976 34.8844 -47.7570 HU 90 2 16 90
1976234N14312 1976 98 NA NA EMMY 1976-08-31 06:00:00 TS 34.9000 -46.8000 90 hurdat_atl main 1407 1407 O_____________ hurdat_atl AL101976 34.9000 -46.8000 HU 90 2 16 86
1976234N14312 1976 98 NA NA EMMY 1976-08-31 09:00:00 TS 34.9914 -45.8655 main 1427 1427 P_____________ AL101976 34.9914 -45.8655 HU 87 2 16 83
1976234N14312 1976 98 NA NA EMMY 1976-08-31 12:00:00 TS 35.1000 -44.9000 85 977 hurdat_atl main 1454 1454 O_____________ hurdat_atl AL101976 35.1000 -44.9000 HU 85 977 2 16 85
1976234N14312 1976 98 NA NA EMMY 1976-08-31 15:00:00 TS 35.1416 -43.8789 main 1495 1495 P_____________ AL101976 35.1416 -43.8789 HU 85 2 17 87
1976234N14312 1976 98 NA NA EMMY 1976-08-31 18:00:00 TS 35.2000 -42.8000 85 hurdat_atl main 1535 1535 O_____________ hurdat_atl AL101976 35.2000 -42.8000 HU 85 2 18 83
1976234N14312 1976 98 NA NA EMMY 1976-08-31 21:00:00 TS 35.3649 -41.6441 main 1575 1575 P_____________ AL101976 35.3649 -41.6441 HU 85 2 19 81
1976234N14312 1976 98 NA NA EMMY 1976-09-01 00:00:00 TS 35.5000 -40.5000 85 hurdat_atl main 1624 1624 O_____________ hurdat_atl AL101976 35.5000 -40.5000 HU 85 2 18 86
1976234N14312 1976 98 NA NA EMMY 1976-09-01 03:00:00 TS 35.4937 -39.4695 main 1679 1679 P_____________ AL101976 35.4937 -39.4695 HU 85 2 16 94
1976234N14312 1976 98 NA NA EMMY 1976-09-01 06:00:00 TS 35.4000 -38.5000 85 hurdat_atl main 1745 1745 O_____________ hurdat_atl AL101976 35.4000 -38.5000 HU 85 2 16 98
1976234N14312 1976 98 NA NA EMMY 1976-09-01 09:00:00 TS 35.2642 -37.5348 main 1812 1812 P_____________ AL101976 35.2642 -37.5348 HU 82 1 16 101
1976234N14312 1976 98 NA NA EMMY 1976-09-01 12:00:00 TS 35.1000 -36.6000 80 975 hurdat_atl main 1883 1883 O_____________ hurdat_atl AL101976 35.1000 -36.6000 HU 80 975 1 15 100
1976234N14312 1976 98 NA NA EMMY 1976-09-01 15:00:00 TS 34.9870 -35.6789 main 1931 1847 P_____________ AL101976 34.9870 -35.6789 HU 80 1 15 102
1976234N14312 1976 98 NA NA EMMY 1976-09-01 18:00:00 TS 34.8000 -34.8000 80 hurdat_atl main 1847 1763 O_____________ hurdat_atl AL101976 34.8000 -34.8000 HU 80 1 15 112
1976234N14312 1976 98 NA NA EMMY 1976-09-01 21:00:00 TS 34.4072 -33.9537 main 1763 1680 P_____________ AL101976 34.4072 -33.9537 HU 80 1 15 121
1976234N14312 1976 98 NA NA EMMY 1976-09-02 00:00:00 TS 34.0000 -33.2000 80 hurdat_atl main 1680 1617 O_____________ hurdat_atl AL101976 34.0000 -33.2000 HU 80 1 13 121
1976234N14312 1976 98 NA NA EMMY 1976-09-02 03:00:00 TS 33.7389 -32.5932 main 1617 1561 P_____________ AL101976 33.7389 -32.5932 HU 80 1 11 112
1976234N14312 1976 98 NA NA EMMY 1976-09-02 06:00:00 TS 33.6000 -32.0000 80 hurdat_atl main 1561 1496 O_____________ hurdat_atl AL101976 33.6000 -32.0000 HU 80 1 11 101
1976234N14312 1976 98 NA NA EMMY 1976-09-02 09:00:00 TS 33.5254 -31.2422 main 1487 1430 P_____________ AL101976 33.5254 -31.2422 HU 80 1 12 90
1976234N14312 1976 98 NA NA EMMY 1976-09-02 12:00:00 TS 33.6000 -30.5000 80 hurdat_atl main 1430 1387 O_____________ hurdat_atl AL101976 33.6000 -30.5000 HU 80 1 12 75
1976234N14312 1976 98 NA NA EMMY 1976-09-02 15:00:00 TS 33.8247 -29.8903 main 1387 1363 P_____________ AL101976 33.8247 -29.8903 HU 80 1 11 57
1976234N14312 1976 98 NA NA EMMY 1976-09-02 18:00:00 TS 34.2000 -29.4000 80 hurdat_atl main 1363 1350 O_____________ hurdat_atl AL101976 34.2000 -29.4000 HU 80 1 11 41
1976234N14312 1976 98 NA NA EMMY 1976-09-02 21:00:00 TS 34.6698 -28.9975 main 1356 1350 P_____________ AL101976 34.6698 -28.9975 HU 77 1 12 30
1976234N14312 1976 98 NA NA EMMY 1976-09-03 00:00:00 TS 35.2000 -28.7000 75 980 hurdat_atl main 1360 1358 O_____________ hurdat_atl AL101976 35.2000 -28.7000 HU 75 980 1 11 23
1976234N14312 1976 98 NA NA EMMY 1976-09-03 03:00:00 TS 35.6999 -28.4695 main 1374 1373 P_____________ AL101976 35.6999 -28.4695 HU 75 1 11 18
1976234N14312 1976 98 NA NA EMMY 1976-09-03 06:00:00 TS 36.2000 -28.3000 75 hurdat_atl main 1391 1391 O_____________ hurdat_atl AL101976 36.2000 -28.3000 HU 75 1 10 13
1976234N14312 1976 98 NA NA EMMY 1976-09-03 09:00:00 TS 36.7147 -28.1791 main 1418 1418 P_____________ AL101976 36.7147 -28.1791 HU 75 1 10 14
1976234N14312 1976 98 NA NA EMMY 1976-09-03 12:00:00 TS 37.2000 -28.0000 75 hurdat_atl main 1439 1439 O_____________ hurdat_atl AL101976 37.2000 -28.0000 HU 75 1 10 27
1976234N14312 1976 98 NA NA EMMY 1976-09-03 15:00:00 TS 37.6154 -27.6080 main 1442 1442 P_____________ AL101976 37.6154 -27.6080 HU 72 1 10 38
1976234N14312 1976 98 NA NA EMMY 1976-09-03 18:00:00 TS 38.0000 -27.2000 70 984 hurdat_atl main 1448 1448 O_____________ hurdat_atl AL101976 38.0000 -27.2000 HU 70 984 1 9 31
1976234N14312 1976 98 NA NA EMMY 1976-09-03 21:00:00 TS 38.3994 -27.0135 main 1468 1468 P_____________ AL101976 38.3994 -27.0135 HU 67 986 1 9 21
1976234N14312 1976 98 NA NA EMMY 1976-09-04 00:00:00 TS 38.8000 -26.8000 65 988 hurdat_atl main 1489 1454 O_____________ hurdat_atl AL101976 38.8000 -26.8000 HU 65 988 1 10 34
1976234N14312 1976 98 NA NA EMMY 1976-09-04 03:00:00 TS 39.1929 -26.3303 main 1446 1401 P_____________ AL101976 39.1929 -26.3303 HU 65 991 1 11 44
1976234N14312 1976 98 NA NA EMMY 1976-09-04 06:00:00 TS 39.6000 -25.8000 65 994 hurdat_atl main 1401 1366 O_____________ hurdat_atl AL101976 39.6000 -25.8000 HU 65 994 1 11 39
1976234N14312 1976 98 NA NA EMMY 1976-09-04 09:00:00 TS 40.0720 -25.3997 main 1366 1324 P_____________ AL101976 40.0720 -25.3997 HU 57 996 0 11 34
1976234N14312 1976 98 NA NA EMMY 1976-09-04 12:00:00 ET 40.5000 -25.0000 50 998 hurdat_atl main 1324 1282 O_____________ hurdat_atl AL101976 40.5000 -25.0000 EX 50 998 -4 10 43
1976234N14312 1976 98 NA NA EMMY 1976-09-04 15:00:00 ET 40.7932 -24.5254 main 1274 1228 P_____________ AL101976 40.7932 -24.5254 EX 40 1000 -4 9 57
1976234N14312 1976 98 NA NA EMMY 1976-09-04 18:00:00 ET 41.0000 -24.0000 30 1002 hurdat_atl main 1228 O_____________ hurdat_atl AL101976 41.0000 -24.0000 EX 30 1002 -4 9 62

IBTrACS Databaseについて

本データベースは、米国NOAAが公開する1842年以降の世界の熱帯低気圧のベストトラックデータアーカイブInternational Best Track Archive for Climate Stewardship (IBTrACS)を、ウェブで閲覧しやすい形式に変換したものです。

最終更新日:2021-10-21